CFX2 weather

Calgary / Okotoks Air Park
Calgary, Alberta, Canada

Public forecast

Using degrees Celsius for public forecast. Weather courtesy of forecast.io.

METAR (pilot weather report)

Closest report is Calgary International Airport, 23.0 nm (42.5 km) N. Retrieved 2019/05/22 10:00 UTC (37 minutes ago):

CYYC 221000Z 35004KT 10SM FEW020 OVC110 05/04 A3006 RMK SC2AC6 SLP212

TAF (pilot weather forecast)

Closest forecast is Calgary International Airport, 23.0 nm (42.5 km) N. Retrieved 2019/05/22 09:41 UTC (56 minutes ago):

TAF CYYC 220838Z 2209/2306 VRB03KT P6SM -RA FEW009 OVC025 TEMPO 2209/2211 4SM -SHRA BR BKN008 OVC012 FM221100 VRB03KT P6SM FEW005 SCT020 BKN100 TEMPO 2211/2214 5SM BR SCT004 BKN020 PROB30 2211/2214 2SM BR BKN004 FM221400 33005KT P6SM FEW005 SCT020 BKN240 FM221600 VRB03KT P6SM FEW030 BKN240 FM221800 17008KT P6SM FEW050 SCT240 BECMG 2221/2223 18010KT RMK NXT FCST BY 221200Z